createdAt,value
2023-02-22T00:00:01.629Z,5.30
2023-02-22T00:05:06.440Z,4.07
2023-02-22T00:10:13.348Z,4.68
2023-02-22T00:15:17.537Z,3.92
2023-02-22T00:20:19.903Z,5.03
2023-02-22T00:25:24.183Z,3.72
2023-02-22T00:30:28.990Z,9.85
2023-02-22T00:35:31.483Z,7.60
2023-02-22T00:40:34.719Z,5.60
2023-02-22T00:45:37.433Z,8.45
2023-02-22T00:50:39.352Z,8.48
2023-02-22T00:55:41.451Z,6.65
2023-02-22T01:00:43.464Z,7.75
2023-02-22T01:05:45.620Z,5.05
2023-02-22T01:10:47.867Z,5.78
2023-02-22T01:15:50.007Z,5.70
2023-02-22T01:20:51.832Z,4.82
2023-02-22T01:25:54.108Z,6.68
2023-02-22T01:30:56.299Z,6.80
2023-02-22T01:36:00.032Z,7.85
2023-02-22T01:41:02.546Z,4.32
2023-02-22T01:46:06.482Z,4.80
2023-02-22T01:51:17.677Z,3.85
2023-02-22T01:56:22.184Z,5.43
2023-02-22T02:01:26.119Z,3.85
2023-02-22T02:06:32.209Z,3.08
2023-02-22T02:11:35.130Z,4.97
2023-02-22T02:16:50.292Z,6.82
2023-02-22T02:22:27.046Z,8.82
2023-02-22T02:27:54.995Z,7.05
2023-02-22T02:33:00.209Z,7.78
2023-02-22T02:38:30.626Z,7.43
2023-02-22T02:43:35.209Z,9.38
2023-02-22T02:48:41.800Z,6.90
2023-02-22T02:53:47.426Z,6.75
2023-02-22T02:58:52.744Z,6.28
2023-02-22T03:04:17.328Z,6.35
2023-02-22T03:09:35.613Z,8.93
2023-02-22T03:14:56.026Z,6.07
2023-02-22T03:20:09.743Z,6.35
2023-02-22T03:25:22.482Z,7.68
2023-02-22T03:30:37.815Z,8.57
2023-02-22T03:35:49.246Z,4.82
2023-02-22T03:40:54.788Z,5.85
2023-02-22T03:45:58.640Z,7.07
2023-02-22T03:51:04.393Z,6.50
2023-02-22T03:56:10.475Z,5.35
2023-02-22T04:01:13.490Z,7.18
2023-02-22T04:06:15.354Z,6.45
2023-02-22T04:11:18.887Z,6.72
2023-02-22T04:16:20.696Z,6.53
2023-02-22T04:21:22.817Z,5.25
2023-02-22T04:26:25.839Z,8.13
2023-02-22T04:31:31.811Z,6.55
2023-02-22T04:36:33.956Z,4.80
2023-02-22T04:41:36.050Z,9.95
2023-02-22T04:46:38.216Z,4.30
2023-02-22T04:51:41.204Z,5.30
2023-02-22T04:56:45.964Z,6.20
2023-02-22T05:01:47.751Z,6.90
2023-02-22T05:06:49.452Z,5.35
2023-02-22T05:11:51.039Z,6.53
2023-02-22T05:16:57.645Z,5.35
2023-02-22T05:21:59.754Z,6.45
2023-02-22T05:27:01.462Z,5.95
2023-02-22T05:32:03.166Z,5.30
2023-02-22T05:37:05.260Z,18.50
2023-02-22T05:42:07.129Z,12.57
2023-02-22T05:47:08.788Z,9.93
2023-02-22T05:52:10.412Z,7.97
2023-02-22T05:57:12.281Z,8.15
2023-02-22T06:02:14.098Z,10.40
2023-02-22T06:07:16.252Z,9.38
2023-02-22T06:12:17.933Z,8.00
2023-02-22T06:17:20.642Z,8.40
2023-02-22T06:22:22.523Z,6.22
2023-02-22T06:27:24.135Z,6.00
2023-02-22T06:32:26.377Z,8.80
2023-02-22T06:37:28.207Z,5.53
2023-02-22T06:42:29.896Z,5.40
2023-02-22T06:47:31.496Z,7.00
2023-02-22T06:52:33.148Z,6.00
2023-02-22T06:57:34.724Z,3.40
2023-02-22T07:02:37.228Z,6.25
2023-02-22T07:07:39.694Z,4.53
2023-02-22T07:12:41.327Z,4.97
2023-02-22T07:17:42.927Z,9.30
2023-02-22T07:22:44.535Z,5.22
2023-02-22T07:27:47.282Z,5.85
2023-02-22T07:32:48.969Z,6.50
2023-02-22T07:37:50.772Z,5.55
2023-02-22T07:43:06.593Z,4.00
2023-02-22T07:48:09.361Z,6.72
2023-02-22T07:53:15.098Z,5.32
2023-02-22T07:58:19.495Z,4.68
2023-02-22T08:03:23.749Z,5.70
2023-02-22T08:08:25.433Z,5.72
2023-02-22T08:13:27.246Z,6.32
2023-02-22T08:18:28.888Z,5.63
2023-02-22T08:23:31.645Z,4.88
2023-02-22T08:28:33.288Z,4.85
2023-02-22T08:33:35.582Z,5.50
2023-02-22T08:38:37.774Z,5.00
2023-02-22T08:43:39.421Z,6.47
2023-02-22T08:48:50.746Z,4.95
2023-02-22T08:53:53.596Z,8.80
2023-02-22T08:58:55.955Z,5.28
2023-02-22T09:03:57.799Z,6.70
2023-02-22T09:08:59.467Z,4.38
2023-02-22T09:14:01.060Z,4.93
2023-02-22T09:19:02.669Z,4.80
2023-02-22T09:24:08.471Z,4.75
2023-02-22T09:29:10.547Z,4.82
2023-02-22T09:34:15.736Z,4.72
2023-02-22T09:39:17.888Z,6.53
2023-02-22T09:44:28.995Z,4.20
2023-02-22T09:49:57.450Z,4.70
2023-02-22T09:55:23.256Z,3.90
2023-02-22T10:00:33.760Z,6.00
2023-02-22T10:05:42.917Z,4.55
2023-02-22T10:16:03.196Z,3.50
2023-02-22T10:21:31.611Z,4.30
2023-02-22T10:31:46.187Z,3.53
2023-02-22T10:36:51.275Z,3.58
2023-02-22T10:41:57.272Z,3.45
2023-02-22T10:47:01.677Z,5.72
2023-02-22T10:52:12.819Z,3.25
2023-02-22T10:57:18.468Z,4.55
2023-02-22T11:02:31.861Z,4.25
2023-02-22T11:07:36.193Z,4.45
2023-02-22T11:12:41.603Z,3.30
2023-02-22T11:17:46.210Z,2.83
2023-02-22T11:22:54.632Z,1.85
2023-02-22T11:28:11.113Z,1.20
2023-02-22T11:33:15.716Z,2.55
2023-02-22T11:38:31.241Z,1.67
2023-02-22T11:43:32.869Z,1.90
2023-02-22T11:48:40.122Z,1.15
2023-02-22T11:54:00.923Z,1.35
2023-02-22T11:59:30.476Z,0.93
2023-02-22T12:04:50.427Z,0.88
2023-02-22T12:10:18.509Z,0.70
2023-02-22T12:15:36.881Z,1.30
2023-02-22T12:20:56.807Z,0.80
2023-02-22T12:26:08.309Z,0.70
2023-02-22T12:31:20.268Z,1.35
2023-02-22T12:36:28.236Z,1.45
2023-02-22T12:41:54.489Z,0.85
2023-02-22T12:46:58.377Z,0.77
2023-02-22T12:52:21.921Z,1.77
2023-02-22T12:57:33.868Z,1.40
2023-02-22T13:02:40.152Z,1.38
2023-02-22T13:07:57.023Z,3.08
2023-02-22T13:13:11.238Z,2.03
2023-02-22T13:18:18.386Z,1.70
2023-02-22T13:23:46.059Z,2.33
2023-02-22T13:29:09.264Z,3.40
2023-02-22T13:34:40.320Z,4.30
2023-02-22T13:40:03.477Z,3.17
2023-02-22T13:45:39.194Z,4.78
2023-02-22T13:51:02.409Z,4.25
2023-02-22T13:56:04.536Z,2.67
2023-02-22T14:01:06.159Z,4.75
2023-02-22T14:06:37.083Z,4.93
2023-02-22T14:11:43.143Z,3.83
2023-02-22T14:16:45.461Z,2.95
2023-02-22T14:22:07.396Z,2.50
2023-02-22T14:27:10.692Z,2.67
2023-02-22T14:32:15.072Z,3.33
2023-02-22T14:37:24.921Z,3.85
2023-02-22T14:42:34.689Z,3.63
2023-02-22T14:47:43.902Z,3.90
2023-02-22T14:58:11.026Z,4.47
2023-02-22T15:03:32.987Z,3.80
2023-02-22T15:08:34.691Z,3.53
2023-02-22T15:13:36.308Z,3.17
2023-02-22T15:18:42.319Z,7.90
2023-02-22T15:23:47.068Z,6.57
2023-02-22T15:28:54.380Z,5.15
2023-02-22T15:33:56.595Z,6.82
2023-02-22T15:38:58.777Z,5.40
2023-02-22T15:44:17.815Z,6.93
2023-02-22T15:49:24.821Z,5.90
2023-02-22T15:54:28.049Z,4.50
2023-02-22T15:59:33.791Z,5.28
2023-02-22T16:04:35.865Z,6.00
2023-02-22T16:09:37.748Z,4.60
2023-02-22T16:14:44.948Z,6.60
2023-02-22T16:19:50.336Z,6.05
2023-02-22T16:24:54.583Z,6.20
2023-02-22T16:30:22.188Z,5.28
2023-02-22T16:35:28.797Z,8.55
2023-02-22T16:40:34.568Z,8.07
2023-02-22T16:45:36.300Z,6.72
2023-02-22T16:50:37.985Z,7.35
2023-02-22T16:55:44.718Z,9.38
2023-02-22T17:00:46.432Z,9.07
2023-02-22T17:05:48.085Z,13.45
2023-02-22T17:10:51.791Z,13.70
2023-02-22T17:15:56.550Z,9.90
2023-02-22T17:20:58.109Z,11.18
2023-02-22T17:26:04.635Z,7.60
2023-02-22T17:31:07.176Z,10.07
2023-02-22T17:36:08.863Z,11.90
2023-02-22T17:41:10.667Z,9.93
2023-02-22T17:46:12.551Z,9.50
2023-02-22T17:51:14.353Z,11.40
2023-02-22T17:56:20.813Z,8.95
2023-02-22T18:01:28.736Z,8.55
2023-02-22T18:06:32.735Z,7.05
2023-02-22T18:11:34.435Z,9.98
2023-02-22T18:16:38.896Z,9.15
2023-02-22T18:21:40.727Z,11.60
2023-02-22T18:26:42.520Z,10.20
2023-02-22T18:31:45.483Z,11.10
2023-02-22T18:36:48.628Z,12.73
2023-02-22T18:41:50.425Z,13.85
2023-02-22T18:46:53.527Z,12.32
2023-02-22T18:51:55.122Z,13.55
2023-02-22T18:56:56.963Z,15.18
2023-02-22T19:01:58.740Z,10.80
2023-02-22T19:07:00.352Z,16.95
2023-02-22T19:12:02.403Z,14.45
2023-02-22T19:17:07.322Z,11.10
2023-02-22T19:22:09.372Z,12.45
2023-02-22T19:27:11.927Z,14.85
2023-02-22T19:32:13.763Z,13.40
2023-02-22T19:37:18.753Z,17.42
2023-02-22T19:42:20.401Z,21.70
2023-02-22T19:47:22.620Z,18.35
2023-02-22T19:52:24.278Z,19.48
2023-02-22T19:57:26.773Z,21.05
2023-02-22T20:02:28.456Z,20.48
2023-02-22T20:07:30.033Z,22.35
2023-02-22T20:12:31.750Z,19.58
2023-02-22T20:17:33.866Z,20.75
2023-02-22T20:22:35.672Z,17.73
2023-02-22T20:27:37.603Z,19.20
2023-02-22T20:32:39.662Z,17.50
2023-02-22T20:37:42.595Z,20.90
2023-02-22T20:42:44.584Z,22.60
2023-02-22T20:47:46.211Z,18.65
2023-02-22T20:52:47.794Z,16.88
2023-02-22T20:57:49.433Z,15.68
2023-02-22T21:02:51.515Z,19.88
2023-02-22T21:07:53.855Z,19.13
2023-02-22T21:12:56.971Z,19.38
2023-02-22T21:18:00.436Z,15.77
2023-02-22T21:23:02.960Z,19.60
2023-02-22T21:28:05.456Z,20.15
2023-02-22T21:33:07.068Z,19.35
2023-02-22T21:38:14.550Z,23.42
2023-02-22T21:43:16.629Z,23.08
2023-02-22T21:48:18.191Z,23.00
2023-02-22T21:53:20.287Z,23.23
2023-02-22T21:58:22.478Z,23.63
2023-02-22T22:03:24.526Z,23.65
2023-02-22T22:08:27.996Z,21.75
2023-02-22T22:13:29.567Z,25.23
2023-02-22T22:18:31.158Z,23.50
2023-02-22T22:23:33.209Z,20.63
2023-02-22T22:28:35.620Z,21.92
2023-02-22T22:33:37.795Z,22.23
2023-02-22T22:38:39.439Z,21.25
2023-02-22T22:43:46.034Z,22.13
2023-02-22T22:48:48.077Z,21.90
2023-02-22T22:53:51.014Z,23.63
2023-02-22T22:58:55.544Z,21.23
2023-02-22T23:04:02.081Z,21.13
2023-02-22T23:09:13.819Z,29.95
2023-02-22T23:14:21.223Z,21.20
2023-02-22T23:19:22.818Z,22.08
2023-02-22T23:24:27.524Z,25.92
2023-02-22T23:29:29.981Z,27.63
2023-02-22T23:34:31.935Z,23.95
2023-02-22T23:39:33.544Z,21.17
2023-02-22T23:44:35.338Z,26.02
2023-02-22T23:49:38.479Z,21.05
2023-02-22T23:54:43.878Z,24.48
2023-02-22T23:59:46.394Z,23.30
